sensor_id;sensor_type;location;lat;lon;timestamp;temperature;humidity
21582;DHT22;10952;50.836;4.348;2024-03-08T00:00:18;7.90;99.90
21582;DHT22;10952;50.836;4.348;2024-03-08T00:02:45;8.00;99.90
21582;DHT22;10952;50.836;4.348;2024-03-08T00:05:12;7.90;99.90
21582;DHT22;10952;50.836;4.348;2024-03-08T00:07:39;7.80;99.90
21582;DHT22;10952;50.836;4.348;2024-03-08T00:10:07;7.90;99.90
21582;DHT22;10952;50.836;4.348;2024-03-08T00:12:39;7.90;99.90
21582;DHT22;10952;50.836;4.348;2024-03-08T00:15:16;7.90;99.90
21582;DHT22;10952;50.836;4.348;2024-03-08T00:17:42;7.90;99.90
21582;DHT22;10952;50.836;4.348;2024-03-08T00:20:09;7.80;99.90
21582;DHT22;10952;50.836;4.348;2024-03-08T00:22:38;7.70;99.90
21582;DHT22;10952;50.836;4.348;2024-03-08T00:25:05;7.60;99.90
21582;DHT22;10952;50.836;4.348;2024-03-08T00:27:34;7.70;99.90
21582;DHT22;10952;50.836;4.348;2024-03-08T00:30:00;7.70;99.90
21582;DHT22;10952;50.836;4.348;2024-03-08T00:32:26;7.60;99.90
21582;DHT22;10952;50.836;4.348;2024-03-08T00:34:55;7.60;99.90
21582;DHT22;10952;50.836;4.348;2024-03-08T00:37:21;7.60;99.90
21582;DHT22;10952;50.836;4.348;2024-03-08T00:39:51;7.60;99.90
21582;DHT22;10952;50.836;4.348;2024-03-08T00:42:17;7.50;99.90
21582;DHT22;10952;50.836;4.348;2024-03-08T00:44:43;7.50;99.90
21582;DHT22;10952;50.836;4.348;2024-03-08T00:47:09;7.50;99.90
21582;DHT22;10952;50.836;4.348;2024-03-08T00:49:37;7.50;99.90
21582;DHT22;10952;50.836;4.348;2024-03-08T00:52:06;7.50;99.90
21582;DHT22;10952;50.836;4.348;2024-03-08T00:54:32;7.50;99.90
21582;DHT22;10952;50.836;4.348;2024-03-08T00:56:58;7.50;99.90
21582;DHT22;10952;50.836;4.348;2024-03-08T00:59:24;7.40;99.90
21582;DHT22;10952;50.836;4.348;2024-03-08T01:01:49;7.30;99.90
21582;DHT22;10952;50.836;4.348;2024-03-08T01:04:15;7.50;99.90
21582;DHT22;10952;50.836;4.348;2024-03-08T01:06:41;7.40;99.90
21582;DHT22;10952;50.836;4.348;2024-03-08T01:09:09;7.40;99.90
21582;DHT22;10952;50.836;4.348;2024-03-08T01:11:35;7.40;99.90
21582;DHT22;10952;50.836;4.348;2024-03-08T01:14:01;7.30;99.90
21582;DHT22;10952;50.836;4.348;2024-03-08T01:16:26;7.30;99.90
21582;DHT22;10952;50.836;4.348;2024-03-08T01:18:52;7.40;99.90
21582;DHT22;10952;50.836;4.348;2024-03-08T01:21:18;7.30;99.90
21582;DHT22;10952;50.836;4.348;2024-03-08T01:23:43;7.20;99.90
21582;DHT22;10952;50.836;4.348;2024-03-08T01:26:09;7.10;99.90
21582;DHT22;10952;50.836;4.348;2024-03-08T01:28:35;7.00;99.90
21582;DHT22;10952;50.836;4.348;2024-03-08T01:31:00;7.00;99.90
21582;DHT22;10952;50.836;4.348;2024-03-08T01:33:27;7.00;99.90
21582;DHT22;10952;50.836;4.348;2024-03-08T01:35:53;7.00;99.90
21582;DHT22;10952;50.836;4.348;2024-03-08T01:38:19;7.00;99.90
21582;DHT22;10952;50.836;4.348;2024-03-08T01:40:49;7.00;99.90
21582;DHT22;10952;50.836;4.348;2024-03-08T01:43:35;7.10;99.90
21582;DHT22;10952;50.836;4.348;2024-03-08T01:46:01;7.00;99.90
21582;DHT22;10952;50.836;4.348;2024-03-08T01:48:31;7.00;99.90
21582;DHT22;10952;50.836;4.348;2024-03-08T01:50:57;6.90;99.90
21582;DHT22;10952;50.836;4.348;2024-03-08T01:53:24;6.90;99.90
21582;DHT22;10952;50.836;4.348;2024-03-08T01:55:54;6.80;99.90
21582;DHT22;10952;50.836;4.348;2024-03-08T01:58:22;6.80;99.90
21582;DHT22;10952;50.836;4.348;2024-03-08T02:00:49;6.80;99.90
21582;DHT22;10952;50.836;4.348;2024-03-08T02:03:16;6.80;99.90
21582;DHT22;10952;50.836;4.348;2024-03-08T02:05:41;6.80;99.90
21582;DHT22;10952;50.836;4.348;2024-03-08T02:08:08;6.80;99.90
21582;DHT22;10952;50.836;4.348;2024-03-08T02:10:38;6.80;99.90
21582;DHT22;10952;50.836;4.348;2024-03-08T02:13:04;6.80;99.90
21582;DHT22;10952;50.836;4.348;2024-03-08T02:15:52;6.90;99.90
21582;DHT22;10952;50.836;4.348;2024-03-08T02:18:19;6.90;99.90
21582;DHT22;10952;50.836;4.348;2024-03-08T02:20:51;6.80;99.90
21582;DHT22;10952;50.836;4.348;2024-03-08T02:23:21;6.70;99.90
21582;DHT22;10952;50.836;4.348;2024-03-08T02:25:47;6.70;99.90
21582;DHT22;10952;50.836;4.348;2024-03-08T02:28:13;6.70;99.90
21582;DHT22;10952;50.836;4.348;2024-03-08T02:30:40;6.60;99.90
21582;DHT22;10952;50.836;4.348;2024-03-08T02:33:06;6.60;99.90
21582;DHT22;10952;50.836;4.348;2024-03-08T02:35:33;6.70;99.90
21582;DHT22;10952;50.836;4.348;2024-03-08T02:37:59;6.60;99.90
21582;DHT22;10952;50.836;4.348;2024-03-08T02:40:25;6.50;99.90
21582;DHT22;10952;50.836;4.348;2024-03-08T02:42:51;6.50;99.90
21582;DHT22;10952;50.836;4.348;2024-03-08T02:45:17;6.60;99.90
21582;DHT22;10952;50.836;4.348;2024-03-08T02:47:42;6.60;99.90
21582;DHT22;10952;50.836;4.348;2024-03-08T02:50:08;6.50;99.90
21582;DHT22;10952;50.836;4.348;2024-03-08T02:52:34;6.60;99.90
21582;DHT22;10952;50.836;4.348;2024-03-08T02:55:04;6.50;99.90
21582;DHT22;10952;50.836;4.348;2024-03-08T02:57:31;6.40;99.90
21582;DHT22;10952;50.836;4.348;2024-03-08T02:59:57;6.50;99.90
21582;DHT22;10952;50.836;4.348;2024-03-08T03:02:25;6.30;99.90
21582;DHT22;10952;50.836;4.348;2024-03-08T03:04:52;6.40;99.90
21582;DHT22;10952;50.836;4.348;2024-03-08T03:07:18;6.50;99.90
21582;DHT22;10952;50.836;4.348;2024-03-08T03:09:43;6.40;99.90
21582;DHT22;10952;50.836;4.348;2024-03-08T03:12:09;6.30;99.90
21582;DHT22;10952;50.836;4.348;2024-03-08T03:14:38;6.30;99.90
21582;DHT22;10952;50.836;4.348;2024-03-08T03:17:04;6.20;99.90
21582;DHT22;10952;50.836;4.348;2024-03-08T03:19:30;6.30;99.90
21582;DHT22;10952;50.836;4.348;2024-03-08T03:21:56;6.30;99.90
21582;DHT22;10952;50.836;4.348;2024-03-08T03:24:22;6.30;99.90
21582;DHT22;10952;50.836;4.348;2024-03-08T03:26:49;6.10;99.90
21582;DHT22;10952;50.836;4.348;2024-03-08T03:29:15;6.20;99.90
21582;DHT22;10952;50.836;4.348;2024-03-08T03:31:42;6.20;99.90
21582;DHT22;10952;50.836;4.348;2024-03-08T03:34:10;6.30;99.90
21582;DHT22;10952;50.836;4.348;2024-03-08T03:36:37;6.20;99.90
21582;DHT22;10952;50.836;4.348;2024-03-08T03:39:10;6.10;99.90
21582;DHT22;10952;50.836;4.348;2024-03-08T03:41:38;6.00;99.90
21582;DHT22;10952;50.836;4.348;2024-03-08T03:44:04;6.20;99.90
21582;DHT22;10952;50.836;4.348;2024-03-08T03:46:32;6.10;99.90
21582;DHT22;10952;50.836;4.348;2024-03-08T03:48:58;6.10;99.90
21582;DHT22;10952;50.836;4.348;2024-03-08T03:51:24;6.10;99.90
21582;DHT22;10952;50.836;4.348;2024-03-08T03:53:49;6.00;99.90
21582;DHT22;10952;50.836;4.348;2024-03-08T03:56:15;6.00;99.90
21582;DHT22;10952;50.836;4.348;2024-03-08T03:58:41;6.00;99.90
21582;DHT22;10952;50.836;4.348;2024-03-08T04:01:08;6.00;99.90
21582;DHT22;10952;50.836;4.348;2024-03-08T04:03:35;6.00;99.90
21582;DHT22;10952;50.836;4.348;2024-03-08T04:06:00;6.00;99.90
21582;DHT22;10952;50.836;4.348;2024-03-08T04:08:27;6.00;99.90
21582;DHT22;10952;50.836;4.348;2024-03-08T04:10:53;6.00;99.90
21582;DHT22;10952;50.836;4.348;2024-03-08T04:13:19;6.00;99.90
21582;DHT22;10952;50.836;4.348;2024-03-08T04:15:46;6.00;99.90
21582;DHT22;10952;50.836;4.348;2024-03-08T04:18:14;6.00;99.90
21582;DHT22;10952;50.836;4.348;2024-03-08T04:20:39;6.00;99.90
21582;DHT22;10952;50.836;4.348;2024-03-08T04:23:06;6.10;99.90
21582;DHT22;10952;50.836;4.348;2024-03-08T04:25:31;6.00;99.90
21582;DHT22;10952;50.836;4.348;2024-03-08T04:27:57;6.00;99.90
21582;DHT22;10952;50.836;4.348;2024-03-08T04:30:23;5.90;99.90
21582;DHT22;10952;50.836;4.348;2024-03-08T04:32:49;5.90;99.90
21582;DHT22;10952;50.836;4.348;2024-03-08T04:35:15;5.90;99.90
21582;DHT22;10952;50.836;4.348;2024-03-08T04:37:41;5.80;99.90
21582;DHT22;10952;50.836;4.348;2024-03-08T04:40:07;5.70;99.90
21582;DHT22;10952;50.836;4.348;2024-03-08T04:42:33;5.70;99.90
21582;DHT22;10952;50.836;4.348;2024-03-08T04:45:00;5.60;99.90
21582;DHT22;10952;50.836;4.348;2024-03-08T04:47:26;5.50;99.90
21582;DHT22;10952;50.836;4.348;2024-03-08T04:49:51;5.50;99.90
21582;DHT22;10952;50.836;4.348;2024-03-08T04:52:17;5.60;99.90
21582;DHT22;10952;50.836;4.348;2024-03-08T04:54:43;5.60;99.90
21582;DHT22;10952;50.836;4.348;2024-03-08T04:57:10;5.70;99.90
21582;DHT22;10952;50.836;4.348;2024-03-08T04:59:36;5.70;99.90
21582;DHT22;10952;50.836;4.348;2024-03-08T05:02:02;5.60;99.90
21582;DHT22;10952;50.836;4.348;2024-03-08T05:04:28;5.60;99.90
21582;DHT22;10952;50.836;4.348;2024-03-08T05:06:54;5.70;99.90
21582;DHT22;10952;50.836;4.348;2024-03-08T05:09:20;5.70;99.90
21582;DHT22;10952;50.836;4.348;2024-03-08T05:11:47;5.70;99.90
21582;DHT22;10952;50.836;4.348;2024-03-08T05:14:14;5.60;99.90
21582;DHT22;10952;50.836;4.348;2024-03-08T05:16:46;5.60;99.90
21582;DHT22;10952;50.836;4.348;2024-03-08T05:19:19;5.40;99.90
21582;DHT22;10952;50.836;4.348;2024-03-08T05:21:49;5.40;99.90
21582;DHT22;10952;50.836;4.348;2024-03-08T05:24:15;5.50;99.90
21582;DHT22;10952;50.836;4.348;2024-03-08T05:26:41;5.50;99.90
21582;DHT22;10952;50.836;4.348;2024-03-08T05:29:07;5.50;99.90
21582;DHT22;10952;50.836;4.348;2024-03-08T05:31:50;5.50;99.90
21582;DHT22;10952;50.836;4.348;2024-03-08T05:34:18;5.50;99.90
21582;DHT22;10952;50.836;4.348;2024-03-08T05:36:45;5.50;99.90
21582;DHT22;10952;50.836;4.348;2024-03-08T05:39:15;5.50;99.90
21582;DHT22;10952;50.836;4.348;2024-03-08T05:41:42;5.40;99.90
21582;DHT22;10952;50.836;4.348;2024-03-08T05:44:08;5.40;99.90
21582;DHT22;10952;50.836;4.348;2024-03-08T05:46:35;5.40;99.90
21582;DHT22;10952;50.836;4.348;2024-03-08T05:49:03;5.40;99.90
21582;DHT22;10952;50.836;4.348;2024-03-08T05:51:34;5.50;99.90
21582;DHT22;10952;50.836;4.348;2024-03-08T05:54:01;5.30;99.90
21582;DHT22;10952;50.836;4.348;2024-03-08T05:56:29;5.20;99.90
21582;DHT22;10952;50.836;4.348;2024-03-08T05:58:54;5.30;99.90
21582;DHT22;10952;50.836;4.348;2024-03-08T06:01:20;5.20;99.90
21582;DHT22;10952;50.836;4.348;2024-03-08T06:03:47;5.20;99.90
21582;DHT22;10952;50.836;4.348;2024-03-08T06:06:14;5.30;99.90
21582;DHT22;10952;50.836;4.348;2024-03-08T06:08:41;5.30;99.90
21582;DHT22;10952;50.836;4.348;2024-03-08T06:11:09;5.20;99.90
21582;DHT22;10952;50.836;4.348;2024-03-08T06:13:35;5.20;99.90
21582;DHT22;10952;50.836;4.348;2024-03-08T06:16:01;5.10;99.90
21582;DHT22;10952;50.836;4.348;2024-03-08T06:18:30;5.20;99.90
21582;DHT22;10952;50.836;4.348;2024-03-08T06:20:56;5.10;99.90
21582;DHT22;10952;50.836;4.348;2024-03-08T06:23:22;5.20;99.90
21582;DHT22;10952;50.836;4.348;2024-03-08T06:25:48;5.30;99.90
21582;DHT22;10952;50.836;4.348;2024-03-08T06:28:14;5.30;99.90
21582;DHT22;10952;50.836;4.348;2024-03-08T06:30:40;5.40;99.90
21582;DHT22;10952;50.836;4.348;2024-03-08T06:33:06;5.30;99.90
21582;DHT22;10952;50.836;4.348;2024-03-08T06:35:36;5.20;99.90
21582;DHT22;10952;50.836;4.348;2024-03-08T06:38:04;5.20;99.90
21582;DHT22;10952;50.836;4.348;2024-03-08T06:40:29;5.20;99.90
21582;DHT22;10952;50.836;4.348;2024-03-08T06:42:55;5.20;99.90
21582;DHT22;10952;50.836;4.348;2024-03-08T06:45:21;5.30;99.90
21582;DHT22;10952;50.836;4.348;2024-03-08T06:47:48;5.40;99.90
21582;DHT22;10952;50.836;4.348;2024-03-08T06:50:14;5.40;99.90
21582;DHT22;10952;50.836;4.348;2024-03-08T06:52:41;5.40;99.90
21582;DHT22;10952;50.836;4.348;2024-03-08T06:55:12;5.30;99.90
21582;DHT22;10952;50.836;4.348;2024-03-08T06:57:40;5.30;99.90
21582;DHT22;10952;50.836;4.348;2024-03-08T07:00:09;5.30;99.90
21582;DHT22;10952;50.836;4.348;2024-03-08T07:02:36;5.30;99.90
21582;DHT22;10952;50.836;4.348;2024-03-08T07:05:02;5.40;99.90
21582;DHT22;10952;50.836;4.348;2024-03-08T07:07:29;5.40;99.90
21582;DHT22;10952;50.836;4.348;2024-03-08T07:09:57;5.30;99.90
21582;DHT22;10952;50.836;4.348;2024-03-08T07:12:23;5.40;99.90
21582;DHT22;10952;50.836;4.348;2024-03-08T07:14:49;5.40;99.90
21582;DHT22;10952;50.836;4.348;2024-03-08T07:17:15;5.50;99.90
21582;DHT22;10952;50.836;4.348;2024-03-08T07:19:42;5.50;99.90
21582;DHT22;10952;50.836;4.348;2024-03-08T07:22:07;5.60;99.90
21582;DHT22;10952;50.836;4.348;2024-03-08T07:24:36;5.70;99.90
21582;DHT22;10952;50.836;4.348;2024-03-08T07:27:06;5.70;99.90
21582;DHT22;10952;50.836;4.348;2024-03-08T07:29:32;5.50;99.90
21582;DHT22;10952;50.836;4.348;2024-03-08T07:31:59;5.50;99.90
21582;DHT22;10952;50.836;4.348;2024-03-08T07:34:39;5.60;99.90
21582;DHT22;10952;50.836;4.348;2024-03-08T07:37:06;5.50;99.90
21582;DHT22;10952;50.836;4.348;2024-03-08T07:39:37;5.40;99.90
21582;DHT22;10952;50.836;4.348;2024-03-08T07:42:03;5.50;99.90
21582;DHT22;10952;50.836;4.348;2024-03-08T07:44:28;5.60;99.90
21582;DHT22;10952;50.836;4.348;2024-03-08T07:46:55;5.70;99.90
21582;DHT22;10952;50.836;4.348;2024-03-08T07:49:20;5.90;99.90
21582;DHT22;10952;50.836;4.348;2024-03-08T07:51:46;5.90;99.90
21582;DHT22;10952;50.836;4.348;2024-03-08T07:54:12;5.90;99.90
21582;DHT22;10952;50.836;4.348;2024-03-08T07:56:38;5.80;99.90
21582;DHT22;10952;50.836;4.348;2024-03-08T07:59:04;5.90;99.90
21582;DHT22;10952;50.836;4.348;2024-03-08T08:01:30;6.00;99.90
21582;DHT22;10952;50.836;4.348;2024-03-08T08:03:56;6.00;99.90
21582;DHT22;10952;50.836;4.348;2024-03-08T08:06:22;5.90;99.90
21582;DHT22;10952;50.836;4.348;2024-03-08T08:08:49;6.00;99.90
21582;DHT22;10952;50.836;4.348;2024-03-08T08:11:14;6.00;99.90
21582;DHT22;10952;50.836;4.348;2024-03-08T08:13:41;5.90;99.90
21582;DHT22;10952;50.836;4.348;2024-03-08T08:16:09;5.90;99.90
21582;DHT22;10952;50.836;4.348;2024-03-08T08:18:34;6.10;99.90
21582;DHT22;10952;50.836;4.348;2024-03-08T08:21:01;6.20;99.90
21582;DHT22;10952;50.836;4.348;2024-03-08T08:23:26;6.30;99.90
21582;DHT22;10952;50.836;4.348;2024-03-08T08:25:52;6.50;99.90
21582;DHT22;10952;50.836;4.348;2024-03-08T08:28:18;6.40;99.90
21582;DHT22;10952;50.836;4.348;2024-03-08T08:30:47;6.40;99.90
21582;DHT22;10952;50.836;4.348;2024-03-08T08:33:14;6.40;99.90
21582;DHT22;10952;50.836;4.348;2024-03-08T08:35:40;6.40;99.90
21582;DHT22;10952;50.836;4.348;2024-03-08T08:38:06;6.60;99.90
21582;DHT22;10952;50.836;4.348;2024-03-08T08:40:35;6.70;99.90
21582;DHT22;10952;50.836;4.348;2024-03-08T08:43:02;6.90;99.90
21582;DHT22;10952;50.836;4.348;2024-03-08T08:45:32;6.90;99.90
21582;DHT22;10952;50.836;4.348;2024-03-08T08:47:59;7.00;99.90
21582;DHT22;10952;50.836;4.348;2024-03-08T08:50:27;7.00;99.90
21582;DHT22;10952;50.836;4.348;2024-03-08T08:52:54;7.10;99.90
21582;DHT22;10952;50.836;4.348;2024-03-08T08:55:19;7.10;99.90
21582;DHT22;10952;50.836;4.348;2024-03-08T08:57:52;7.00;99.90
21582;DHT22;10952;50.836;4.348;2024-03-08T09:00:19;7.00;99.90
21582;DHT22;10952;50.836;4.348;2024-03-08T09:02:46;7.20;99.90
21582;DHT22;10952;50.836;4.348;2024-03-08T09:05:13;7.20;99.90
21582;DHT22;10952;50.836;4.348;2024-03-08T09:07:45;7.30;99.90
21582;DHT22;10952;50.836;4.348;2024-03-08T09:10:11;7.30;99.90
21582;DHT22;10952;50.836;4.348;2024-03-08T09:12:38;7.30;99.90
21582;DHT22;10952;50.836;4.348;2024-03-08T09:15:06;7.40;99.90
21582;DHT22;10952;50.836;4.348;2024-03-08T09:17:34;7.50;99.90
21582;DHT22;10952;50.836;4.348;2024-03-08T09:20:00;7.60;99.90
21582;DHT22;10952;50.836;4.348;2024-03-08T09:22:28;7.70;99.90
21582;DHT22;10952;50.836;4.348;2024-03-08T09:24:56;7.70;99.90
21582;DHT22;10952;50.836;4.348;2024-03-08T09:27:23;7.70;99.90
21582;DHT22;10952;50.836;4.348;2024-03-08T09:29:48;7.70;99.90
21582;DHT22;10952;50.836;4.348;2024-03-08T09:32:14;7.70;99.90
21582;DHT22;10952;50.836;4.348;2024-03-08T09:35:06;7.70;99.90
21582;DHT22;10952;50.836;4.348;2024-03-08T09:37:35;7.70;99.90
21582;DHT22;10952;50.836;4.348;2024-03-08T09:40:01;7.80;99.90
21582;DHT22;10952;50.836;4.348;2024-03-08T09:42:30;8.00;99.90
21582;DHT22;10952;50.836;4.348;2024-03-08T09:45:05;8.10;99.90
21582;DHT22;10952;50.836;4.348;2024-03-08T09:47:34;8.20;99.90
21582;DHT22;10952;50.836;4.348;2024-03-08T09:50:06;8.40;99.90
21582;DHT22;10952;50.836;4.348;2024-03-08T09:52:36;8.40;99.90
21582;DHT22;10952;50.836;4.348;2024-03-08T09:55:09;8.30;99.90
21582;DHT22;10952;50.836;4.348;2024-03-08T09:57:37;8.40;99.90
21582;DHT22;10952;50.836;4.348;2024-03-08T10:00:08;8.50;99.90
21582;DHT22;10952;50.836;4.348;2024-03-08T10:02:45;8.60;99.90
21582;DHT22;10952;50.836;4.348;2024-03-08T10:05:13;8.70;99.90
21582;DHT22;10952;50.836;4.348;2024-03-08T10:07:40;8.70;99.90
21582;DHT22;10952;50.836;4.348;2024-03-08T10:10:08;8.70;99.90
21582;DHT22;10952;50.836;4.348;2024-03-08T10:12:35;8.90;99.90
21582;DHT22;10952;50.836;4.348;2024-03-08T10:15:01;9.00;99.90
21582;DHT22;10952;50.836;4.348;2024-03-08T10:17:27;9.00;99.90
21582;DHT22;10952;50.836;4.348;2024-03-08T10:19:57;9.10;99.90
21582;DHT22;10952;50.836;4.348;2024-03-08T10:22:25;9.10;99.90
21582;DHT22;10952;50.836;4.348;2024-03-08T10:24:51;9.20;99.90
21582;DHT22;10952;50.836;4.348;2024-03-08T10:27:18;9.20;99.90
21582;DHT22;10952;50.836;4.348;2024-03-08T10:29:54;9.20;99.90
21582;DHT22;10952;50.836;4.348;2024-03-08T10:32:20;9.40;99.90
21582;DHT22;10952;50.836;4.348;2024-03-08T10:34:46;9.40;99.90
21582;DHT22;10952;50.836;4.348;2024-03-08T10:37:15;9.50;99.90
21582;DHT22;10952;50.836;4.348;2024-03-08T10:40:10;9.70;99.90
21582;DHT22;10952;50.836;4.348;2024-03-08T10:42:54;9.90;99.90
21582;DHT22;10952;50.836;4.348;2024-03-08T10:45:23;10.00;99.90
21582;DHT22;10952;50.836;4.348;2024-03-08T10:50:48;10.40;99.90
21582;DHT22;10952;50.836;4.348;2024-03-08T10:53:18;10.60;99.90
21582;DHT22;10952;50.836;4.348;2024-03-08T10:55:50;10.60;99.90
21582;DHT22;10952;50.836;4.348;2024-03-08T10:58:21;10.90;99.90
21582;DHT22;10952;50.836;4.348;2024-03-08T11:00:49;11.00;99.90
21582;DHT22;10952;50.836;4.348;2024-03-08T11:09:30;16.10;99.90
21582;DHT22;10952;50.836;4.348;2024-03-08T11:12:21;18.00;99.90
21582;DHT22;10952;50.836;4.348;2024-03-08T11:14:51;18.30;98.90
21582;DHT22;10952;50.836;4.348;2024-03-08T11:17:48;19.10;97.40
21582;DHT22;10952;50.836;4.348;2024-03-08T11:20:19;19.70;94.10
21582;DHT22;10952;50.836;4.348;2024-03-08T11:22:53;18.90;94.70
21582;DHT22;10952;50.836;4.348;2024-03-08T11:25:39;18.80;95.00
21582;DHT22;10952;50.836;4.348;2024-03-08T11:28:23;19.00;94.20
21582;DHT22;10952;50.836;4.348;2024-03-08T11:33:32;21.50;90.80
21582;DHT22;10952;50.836;4.348;2024-03-08T11:36:25;21.40;88.80
21582;DHT22;10952;50.836;4.348;2024-03-08T11:38:57;21.00;90.00
21582;DHT22;10952;50.836;4.348;2024-03-08T11:41:24;21.10;87.50
21582;DHT22;10952;50.836;4.348;2024-03-08T11:44:04;21.70;88.10
21582;DHT22;10952;50.836;4.348;2024-03-08T11:46:32;22.60;84.60
21582;DHT22;10952;50.836;4.348;2024-03-08T11:49:02;23.30;80.60
21582;DHT22;10952;50.836;4.348;2024-03-08T11:51:29;23.10;79.60
21582;DHT22;10952;50.836;4.348;2024-03-08T11:53:56;23.00;78.80
21582;DHT22;10952;50.836;4.348;2024-03-08T11:56:22;22.70;78.40
21582;DHT22;10952;50.836;4.348;2024-03-08T11:58:55;22.00;79.10
21582;DHT22;10952;50.836;4.348;2024-03-08T12:01:23;21.30;79.80
21582;DHT22;10952;50.836;4.348;2024-03-08T12:03:57;21.90;79.60
21582;DHT22;10952;50.836;4.348;2024-03-08T12:06:26;22.20;77.90
21582;DHT22;10952;50.836;4.348;2024-03-08T12:08:52;22.50;78.10
21582;DHT22;10952;50.836;4.348;2024-03-08T12:11:23;21.80;78.10
21582;DHT22;10952;50.836;4.348;2024-03-08T12:13:49;20.90;80.30
21582;DHT22;10952;50.836;4.348;2024-03-08T12:16:20;20.50;80.80
21582;DHT22;10952;50.836;4.348;2024-03-08T12:18:50;20.70;81.20
21582;DHT22;10952;50.836;4.348;2024-03-08T12:21:20;21.30;79.90
21582;DHT22;10952;50.836;4.348;2024-03-08T12:24:08;21.20;79.50
21582;DHT22;10952;50.836;4.348;2024-03-08T12:26:39;21.30;78.70
21582;DHT22;10952;50.836;4.348;2024-03-08T12:31:52;22.20;77.90
21582;DHT22;10952;50.836;4.348;2024-03-08T12:34:21;22.40;77.00
21582;DHT22;10952;50.836;4.348;2024-03-08T12:36:48;22.20;77.70
21582;DHT22;10952;50.836;4.348;2024-03-08T12:39:21;22.20;76.50
21582;DHT22;10952;50.836;4.348;2024-03-08T12:41:53;21.70;77.90
21582;DHT22;10952;50.836;4.348;2024-03-08T12:44:22;21.50;78.60
21582;DHT22;10952;50.836;4.348;2024-03-08T12:46:48;21.90;77.60
21582;DHT22;10952;50.836;4.348;2024-03-08T12:49:15;22.10;76.50
21582;DHT22;10952;50.836;4.348;2024-03-08T12:51:47;20.70;78.00
21582;DHT22;10952;50.836;4.348;2024-03-08T12:54:13;21.00;79.10
21582;DHT22;10952;50.836;4.348;2024-03-08T12:56:42;21.20;78.80
21582;DHT22;10952;50.836;4.348;2024-03-08T12:59:10;21.20;78.30
21582;DHT22;10952;50.836;4.348;2024-03-08T13:01:36;21.50;77.90
21582;DHT22;10952;50.836;4.348;2024-03-08T13:04:06;21.60;77.60
21582;DHT22;10952;50.836;4.348;2024-03-08T13:06:32;21.10;78.20
21582;DHT22;10952;50.836;4.348;2024-03-08T13:09:00;20.50;80.10
21582;DHT22;10952;50.836;4.348;2024-03-08T13:11:32;20.70;79.90
21582;DHT22;10952;50.836;4.348;2024-03-08T13:14:03;20.60;79.70
21582;DHT22;10952;50.836;4.348;2024-03-08T13:16:30;20.70;79.60
21582;DHT22;10952;50.836;4.348;2024-03-08T13:18:58;20.60;80.20
21582;DHT22;10952;50.836;4.348;2024-03-08T13:21:23;19.80;81.20
21582;DHT22;10952;50.836;4.348;2024-03-08T13:23:51;19.50;82.00
21582;DHT22;10952;50.836;4.348;2024-03-08T13:26:19;19.10;82.90
21582;DHT22;10952;50.836;4.348;2024-03-08T13:28:46;18.80;83.80
21582;DHT22;10952;50.836;4.348;2024-03-08T13:31:12;18.10;85.40
21582;DHT22;10952;50.836;4.348;2024-03-08T13:33:41;17.50;87.80
21582;DHT22;10952;50.836;4.348;2024-03-08T13:36:11;17.10;89.10
21582;DHT22;10952;50.836;4.348;2024-03-08T13:38:52;17.10;90.20
21582;DHT22;10952;50.836;4.348;2024-03-08T13:41:17;16.70;90.00
21582;DHT22;10952;50.836;4.348;2024-03-08T13:43:46;16.20;91.10
21582;DHT22;10952;50.836;4.348;2024-03-08T13:46:15;15.80;91.40
21582;DHT22;10952;50.836;4.348;2024-03-08T13:48:41;15.80;91.90
21582;DHT22;10952;50.836;4.348;2024-03-08T13:51:13;15.60;92.40
21582;DHT22;10952;50.836;4.348;2024-03-08T13:53:41;15.70;92.60
21582;DHT22;10952;50.836;4.348;2024-03-08T13:56:09;15.60;92.50
21582;DHT22;10952;50.836;4.348;2024-03-08T13:58:37;15.50;92.70
21582;DHT22;10952;50.836;4.348;2024-03-08T14:01:06;15.50;92.90
21582;DHT22;10952;50.836;4.348;2024-03-08T14:03:38;15.30;93.50
21582;DHT22;10952;50.836;4.348;2024-03-08T14:06:07;15.50;93.60
21582;DHT22;10952;50.836;4.348;2024-03-08T14:08:32;15.50;93.80
21582;DHT22;10952;50.836;4.348;2024-03-08T14:10:58;15.40;93.70
21582;DHT22;10952;50.836;4.348;2024-03-08T14:13:24;15.30;94.00
21582;DHT22;10952;50.836;4.348;2024-03-08T14:15:51;15.20;94.10
21582;DHT22;10952;50.836;4.348;2024-03-08T14:18:18;15.00;94.30
21582;DHT22;10952;50.836;4.348;2024-03-08T14:20:43;14.90;94.60
21582;DHT22;10952;50.836;4.348;2024-03-08T14:23:09;14.80;95.00
21582;DHT22;10952;50.836;4.348;2024-03-08T14:25:35;14.80;95.30
21582;DHT22;10952;50.836;4.348;2024-03-08T14:28:02;14.70;96.00
21582;DHT22;10952;50.836;4.348;2024-03-08T14:30:33;14.70;96.00
21582;DHT22;10952;50.836;4.348;2024-03-08T14:33:04;14.80;96.10
21582;DHT22;10952;50.836;4.348;2024-03-08T14:35:40;15.00;95.80
21582;DHT22;10952;50.836;4.348;2024-03-08T14:38:07;15.20;95.80
21582;DHT22;10952;50.836;4.348;2024-03-08T14:40:39;15.40;95.50
21582;DHT22;10952;50.836;4.348;2024-03-08T14:43:05;15.40;95.40
21582;DHT22;10952;50.836;4.348;2024-03-08T14:45:31;15.30;95.80
21582;DHT22;10952;50.836;4.348;2024-03-08T14:47:57;15.40;95.80
21582;DHT22;10952;50.836;4.348;2024-03-08T14:50:24;15.30;95.30
21582;DHT22;10952;50.836;4.348;2024-03-08T14:52:51;15.40;95.60
21582;DHT22;10952;50.836;4.348;2024-03-08T14:55:21;15.50;95.30
21582;DHT22;10952;50.836;4.348;2024-03-08T14:57:51;15.30;95.50
21582;DHT22;10952;50.836;4.348;2024-03-08T15:00:19;15.20;96.00
21582;DHT22;10952;50.836;4.348;2024-03-08T15:03:00;15.20;96.10
21582;DHT22;10952;50.836;4.348;2024-03-08T15:05:34;15.20;95.80
21582;DHT22;10952;50.836;4.348;2024-03-08T15:08:03;15.40;95.60
21582;DHT22;10952;50.836;4.348;2024-03-08T15:10:35;15.40;96.00
21582;DHT22;10952;50.836;4.348;2024-03-08T15:13:01;15.40;95.60
21582;DHT22;10952;50.836;4.348;2024-03-08T15:15:28;15.30;95.90
21582;DHT22;10952;50.836;4.348;2024-03-08T15:17:56;15.20;96.00
21582;DHT22;10952;50.836;4.348;2024-03-08T15:20:24;15.20;96.10
21582;DHT22;10952;50.836;4.348;2024-03-08T15:22:50;15.10;96.30
21582;DHT22;10952;50.836;4.348;2024-03-08T15:25:19;15.20;96.40
21582;DHT22;10952;50.836;4.348;2024-03-08T15:27:54;15.40;96.00
21582;DHT22;10952;50.836;4.348;2024-03-08T15:30:24;15.40;96.00
21582;DHT22;10952;50.836;4.348;2024-03-08T15:32:52;15.20;96.40
21582;DHT22;10952;50.836;4.348;2024-03-08T15:35:26;15.30;96.50
21582;DHT22;10952;50.836;4.348;2024-03-08T15:37:53;15.10;96.40
21582;DHT22;10952;50.836;4.348;2024-03-08T15:40:21;14.90;97.00
21582;DHT22;10952;50.836;4.348;2024-03-08T15:42:57;15.00;97.20
21582;DHT22;10952;50.836;4.348;2024-03-08T15:45:29;15.20;97.20
21582;DHT22;10952;50.836;4.348;2024-03-08T15:47:56;15.30;96.70
21582;DHT22;10952;50.836;4.348;2024-03-08T15:50:24;15.30;97.00
21582;DHT22;10952;50.836;4.348;2024-03-08T15:52:52;15.20;96.90
21582;DHT22;10952;50.836;4.348;2024-03-08T15:55:20;15.20;97.00
21582;DHT22;10952;50.836;4.348;2024-03-08T15:57:52;15.30;96.90
21582;DHT22;10952;50.836;4.348;2024-03-08T16:00:21;15.20;97.10
21582;DHT22;10952;50.836;4.348;2024-03-08T16:03:04;15.30;97.00